createdAt,value
2022-08-26T00:00:05.041Z,31.40
2022-08-26T00:01:05.070Z,31.40
2022-08-26T00:02:05.162Z,31.41
2022-08-26T00:03:05.590Z,31.41
2022-08-26T00:04:05.258Z,31.40
2022-08-26T00:05:05.221Z,31.42
2022-08-26T00:06:05.266Z,31.35
2022-08-26T00:07:05.433Z,31.40
2022-08-26T00:08:05.342Z,31.27
2022-08-26T00:09:05.378Z,31.37
2022-08-26T00:10:05.712Z,31.23
2022-08-26T00:11:05.451Z,31.30
2022-08-26T00:12:05.490Z,31.25
2022-08-26T00:13:05.631Z,31.30
2022-08-26T00:14:05.565Z,31.32
2022-08-26T00:15:05.703Z,31.35
2022-08-26T00:16:05.668Z,31.37
2022-08-26T00:17:05.925Z,31.27
2022-08-26T00:18:05.718Z,31.27
2022-08-26T00:19:05.774Z,31.30
2022-08-26T00:20:05.800Z,31.30
2022-08-26T00:21:06.248Z,31.34
2022-08-26T00:22:05.869Z,31.34
2022-08-26T00:23:06.081Z,31.30
2022-08-26T00:24:05.942Z,31.30
2022-08-26T00:25:06.002Z,31.28
2022-08-26T00:26:06.021Z,31.30
2022-08-26T00:27:06.429Z,31.27
2022-08-26T00:28:06.100Z,31.31
2022-08-26T00:29:06.138Z,31.19
2022-08-26T00:30:06.169Z,31.25
2022-08-26T00:31:06.201Z,31.27
2022-08-26T00:32:06.289Z,31.25
2022-08-26T00:33:07.134Z,31.28
2022-08-26T00:34:06.320Z,31.20
2022-08-26T00:35:06.355Z,31.27
2022-08-26T00:36:06.856Z,31.19
2022-08-26T00:37:08.968Z,31.18
2022-08-26T00:38:06.483Z,31.16
2022-08-26T00:39:06.503Z,31.12
2022-08-26T00:40:06.614Z,31.18
2022-08-26T00:41:06.583Z,31.20
2022-08-26T00:42:06.932Z,31.13
2022-08-26T00:43:09.340Z,31.12
2022-08-26T00:44:06.704Z,31.12
2022-08-26T00:45:06.738Z,31.04
2022-08-26T00:46:06.882Z,31.00
2022-08-26T00:47:06.834Z,31.10
2022-08-26T00:49:12.112Z,31.00
2022-08-26T00:50:06.919Z,31.04
2022-08-26T00:51:06.959Z,30.98
2022-08-26T00:52:09.832Z,31.04
2022-08-26T00:53:07.206Z,30.98
2022-08-26T00:54:07.065Z,30.97
2022-08-26T00:55:07.411Z,30.96
2022-08-26T00:56:07.147Z,30.97
2022-08-26T00:57:08.567Z,30.96
2022-08-26T00:58:07.229Z,30.94
2022-08-26T00:59:07.255Z,30.94
2022-08-26T01:00:07.389Z,30.86
2022-08-26T01:01:07.480Z,30.90
2022-08-26T01:02:07.751Z,30.96
2022-08-26T01:03:11.514Z,30.91
2022-08-26T01:04:07.451Z,30.96
2022-08-26T01:05:07.503Z,30.96
2022-08-26T01:06:12.351Z,30.90
2022-08-26T01:07:07.569Z,30.93
2022-08-26T01:08:07.596Z,30.86
2022-08-26T01:09:09.036Z,30.86
2022-08-26T01:10:07.669Z,30.93
2022-08-26T01:11:07.708Z,30.91
2022-08-26T01:12:07.738Z,30.91
2022-08-26T01:13:07.923Z,30.90
2022-08-26T01:14:07.930Z,30.79
2022-08-26T01:15:07.861Z,30.88
2022-08-26T01:16:08.270Z,30.82
2022-08-26T01:17:07.937Z,30.83
2022-08-26T01:18:08.008Z,30.82
2022-08-26T01:19:08.008Z,30.76
2022-08-26T01:20:08.041Z,30.85
2022-08-26T01:21:08.078Z,30.81
2022-08-26T01:23:08.660Z,30.78
2022-08-26T01:24:08.487Z,30.72
2022-08-26T01:25:08.221Z,30.85
2022-08-26T01:26:08.264Z,30.73
2022-08-26T01:27:08.401Z,30.72
2022-08-26T01:28:08.335Z,30.86
2022-08-26T01:29:08.373Z,30.81
2022-08-26T01:30:08.425Z,30.68
2022-08-26T01:31:08.740Z,30.79
2022-08-26T01:32:08.494Z,30.68
2022-08-26T01:34:09.077Z,30.83
2022-08-26T01:35:08.602Z,30.79
2022-08-26T01:36:08.749Z,30.78
2022-08-26T01:37:08.668Z,30.79
2022-08-26T01:38:08.955Z,30.73
2022-08-26T01:39:08.748Z,30.79
2022-08-26T01:40:08.909Z,30.76
2022-08-26T01:41:16.118Z,30.75
2022-08-26T01:42:10.508Z,30.73
2022-08-26T01:43:09.423Z,30.73
2022-08-26T01:45:09.021Z,30.75
2022-08-26T01:46:09.045Z,30.81
2022-08-26T01:47:09.039Z,30.72
2022-08-26T01:48:09.076Z,30.75
2022-08-26T01:49:09.115Z,30.68
2022-08-26T01:50:09.253Z,30.75
2022-08-26T01:52:09.530Z,30.67
2022-08-26T01:53:09.669Z,30.66
2022-08-26T01:54:12.096Z,30.68
2022-08-26T01:55:09.341Z,30.70
2022-08-26T01:56:09.373Z,30.73
2022-08-26T01:57:09.439Z,30.56
2022-08-26T01:58:09.553Z,30.61
2022-08-26T01:59:09.791Z,30.68
2022-08-26T02:01:09.843Z,30.70
2022-08-26T02:02:09.612Z,30.73
2022-08-26T02:03:09.633Z,30.70
2022-08-26T02:04:09.722Z,30.68
2022-08-26T02:05:09.761Z,30.75
2022-08-26T02:06:10.295Z,30.70
2022-08-26T02:07:09.780Z,30.70
2022-08-26T02:08:09.825Z,30.68
2022-08-26T02:09:09.852Z,30.76
2022-08-26T02:11:09.934Z,30.70
2022-08-26T02:12:09.976Z,30.66
2022-08-26T02:13:10.313Z,30.66
2022-08-26T02:14:10.040Z,30.64
2022-08-26T02:15:11.124Z,30.66
2022-08-26T02:16:10.173Z,30.61
2022-08-26T02:17:10.161Z,30.57
2022-08-26T02:18:14.153Z,30.59
2022-08-26T02:19:10.328Z,30.56
2022-08-26T02:20:13.202Z,30.56
2022-08-26T02:21:10.304Z,30.57
2022-08-26T02:22:10.348Z,30.57
2022-08-26T02:23:10.385Z,30.56
2022-08-26T02:24:10.429Z,30.56
2022-08-26T02:25:10.448Z,30.56
2022-08-26T02:26:10.482Z,30.57
2022-08-26T02:27:10.824Z,30.59
2022-08-26T02:28:10.556Z,30.54
2022-08-26T02:29:10.597Z,30.59
2022-08-26T02:30:10.701Z,30.59
2022-08-26T02:31:10.703Z,30.54
2022-08-26T02:32:10.708Z,30.53
2022-08-26T02:33:11.046Z,30.59
2022-08-26T02:34:10.895Z,30.60
2022-08-26T02:35:10.816Z,30.54
2022-08-26T02:36:10.861Z,30.57
2022-08-26T02:37:10.891Z,30.59
2022-08-26T02:38:11.252Z,30.59
2022-08-26T02:39:11.278Z,30.57
2022-08-26T02:40:11.084Z,30.57
2022-08-26T02:41:11.045Z,30.59
2022-08-26T02:43:11.170Z,30.61
2022-08-26T02:44:11.151Z,30.57
2022-08-26T02:45:11.495Z,30.64
2022-08-26T02:46:11.259Z,30.59
2022-08-26T02:47:11.291Z,30.57
2022-08-26T02:48:11.296Z,30.49
2022-08-26T02:49:11.342Z,30.53
2022-08-26T02:50:11.383Z,30.64
2022-08-26T02:51:11.408Z,30.66
2022-08-26T02:52:11.529Z,30.57
2022-08-26T02:53:11.483Z,30.57
2022-08-26T02:54:11.534Z,30.59
2022-08-26T02:55:11.556Z,30.60
2022-08-26T02:56:11.591Z,30.56
2022-08-26T02:57:11.638Z,30.60
2022-08-26T02:58:11.964Z,30.46
2022-08-26T02:59:11.704Z,30.46
2022-08-26T03:00:11.736Z,30.49
2022-08-26T03:01:11.851Z,30.48
2022-08-26T03:02:11.882Z,30.49
2022-08-26T03:03:11.855Z,30.46
2022-08-26T03:04:12.271Z,30.49
2022-08-26T03:06:12.265Z,30.49
2022-08-26T03:07:12.000Z,30.51
2022-08-26T03:08:12.036Z,30.45
2022-08-26T03:09:14.011Z,30.48
2022-08-26T03:10:12.113Z,30.44
2022-08-26T03:11:12.143Z,30.45
2022-08-26T03:12:12.183Z,30.54
2022-08-26T03:14:12.561Z,30.45
2022-08-26T03:15:17.558Z,30.49
2022-08-26T03:16:12.374Z,30.49
2022-08-26T03:17:12.370Z,30.44
2022-08-26T03:18:12.416Z,30.44
2022-08-26T03:19:12.439Z,30.49
2022-08-26T03:20:13.676Z,30.49
2022-08-26T03:21:12.813Z,30.51
2022-08-26T03:22:12.552Z,30.38
2022-08-26T03:24:12.631Z,30.40
2022-08-26T03:25:12.664Z,30.44
2022-08-26T03:26:12.704Z,30.42
2022-08-26T03:27:12.836Z,30.37
2022-08-26T03:28:13.074Z,30.40
2022-08-26T03:29:12.808Z,30.36
2022-08-26T03:30:12.854Z,30.32
2022-08-26T03:31:12.943Z,30.34
2022-08-26T03:33:12.953Z,30.25
2022-08-26T03:34:12.997Z,30.30
2022-08-26T03:35:13.343Z,30.36
2022-08-26T03:36:13.185Z,30.32
2022-08-26T03:37:13.121Z,30.25
2022-08-26T03:38:13.137Z,30.37
2022-08-26T03:39:13.183Z,30.34
2022-08-26T03:40:13.294Z,30.34
2022-08-26T03:41:13.253Z,30.30
2022-08-26T03:42:13.538Z,30.29
2022-08-26T03:43:13.329Z,30.25
2022-08-26T03:44:13.404Z,30.37
2022-08-26T03:45:13.397Z,30.25
2022-08-26T03:46:13.461Z,30.22
2022-08-26T03:47:13.469Z,30.28
2022-08-26T03:49:13.543Z,30.19
2022-08-26T03:51:13.919Z,30.23
2022-08-26T03:52:13.658Z,30.25
2022-08-26T03:53:13.728Z,30.28
2022-08-26T03:55:13.760Z,30.15
2022-08-26T03:56:13.801Z,30.13
2022-08-26T03:57:13.831Z,30.19
2022-08-26T03:58:14.122Z,30.08
2022-08-26T03:59:13.908Z,30.04
2022-08-26T04:00:13.947Z,30.15
2022-08-26T04:01:13.986Z,30.11
2022-08-26T04:02:14.018Z,30.13
2022-08-26T04:03:18.528Z,30.11
2022-08-26T04:04:15.532Z,30.11
2022-08-26T04:05:14.526Z,30.08
2022-08-26T04:06:14.348Z,30.13
2022-08-26T04:07:14.206Z,29.97
2022-08-26T04:08:14.238Z,29.97
2022-08-26T04:09:14.322Z,30.11
2022-08-26T04:10:14.371Z,30.01
2022-08-26T04:11:14.348Z,30.11
2022-08-26T04:12:14.753Z,29.99
2022-08-26T04:13:14.418Z,30.10
2022-08-26T04:14:17.715Z,30.06
2022-08-26T04:15:14.492Z,30.10
2022-08-26T04:16:14.588Z,30.10
2022-08-26T04:17:14.564Z,30.08
2022-08-26T04:18:14.967Z,30.11
2022-08-26T04:19:14.641Z,30.08
2022-08-26T04:20:16.231Z,30.10
2022-08-26T04:21:15.319Z,29.97
2022-08-26T04:22:14.751Z,30.18
2022-08-26T04:23:14.856Z,30.10
2022-08-26T04:24:14.902Z,30.13
2022-08-26T04:25:15.111Z,30.13
2022-08-26T04:26:14.944Z,30.10
2022-08-26T04:27:14.933Z,30.08
2022-08-26T04:28:14.970Z,30.11
2022-08-26T04:29:15.002Z,30.07
2022-08-26T04:30:15.054Z,30.19
2022-08-26T04:31:15.091Z,30.11
2022-08-26T04:32:15.443Z,30.28
2022-08-26T04:33:15.332Z,30.21
2022-08-26T04:34:15.254Z,30.15
2022-08-26T04:35:15.224Z,30.10
2022-08-26T04:37:15.306Z,30.22
2022-08-26T04:38:15.334Z,30.22
2022-08-26T04:39:15.671Z,30.19
2022-08-26T04:40:15.707Z,30.21
2022-08-26T04:41:16.884Z,30.32
2022-08-26T04:42:17.941Z,30.28
2022-08-26T04:43:15.518Z,30.21
2022-08-26T04:44:15.752Z,30.28
2022-08-26T04:45:15.592Z,30.28
2022-08-26T04:46:15.895Z,30.28
2022-08-26T04:47:15.798Z,30.28
2022-08-26T04:48:16.783Z,30.22
2022-08-26T04:49:15.738Z,30.23
2022-08-26T04:50:15.922Z,30.30
2022-08-26T04:51:15.815Z,30.13
2022-08-26T04:52:16.184Z,30.21
2022-08-26T04:53:15.881Z,30.21
2022-08-26T04:54:16.294Z,30.19
2022-08-26T04:55:15.961Z,30.19
2022-08-26T04:56:15.995Z,30.21
2022-08-26T04:57:16.036Z,30.21
2022-08-26T04:58:16.312Z,30.21
2022-08-26T04:59:17.133Z,30.15
2022-08-26T05:00:16.144Z,30.22
2022-08-26T05:01:16.254Z,30.19
2022-08-26T05:03:16.248Z,30.21
2022-08-26T05:05:16.624Z,30.21
2022-08-26T05:06:16.362Z,30.25
2022-08-26T05:07:17.677Z,30.21
2022-08-26T05:08:16.438Z,30.18
2022-08-26T05:09:16.467Z,30.21
2022-08-26T05:10:16.681Z,30.29
2022-08-26T05:11:16.849Z,30.37
2022-08-26T05:12:16.642Z,30.29
2022-08-26T05:13:16.675Z,30.36
2022-08-26T05:14:16.715Z,30.26
2022-08-26T05:15:17.377Z,30.32
2022-08-26T05:16:16.994Z,30.22
2022-08-26T05:17:16.803Z,30.30
2022-08-26T05:18:17.058Z,30.26
2022-08-26T05:19:18.705Z,30.32
2022-08-26T05:20:16.871Z,30.23
2022-08-26T05:21:16.908Z,30.23
2022-08-26T05:22:16.942Z,30.28
2022-08-26T05:23:17.293Z,30.30
2022-08-26T05:24:17.111Z,30.23
2022-08-26T05:25:17.358Z,30.11
2022-08-26T05:26:17.089Z,30.04
2022-08-26T05:27:17.146Z,29.85
2022-08-26T05:28:17.166Z,29.81
2022-08-26T05:29:17.208Z,29.74
2022-08-26T05:30:17.238Z,29.66
2022-08-26T05:31:17.389Z,29.55
2022-08-26T05:32:17.627Z,29.60
2022-08-26T05:33:17.348Z,29.47
2022-08-26T05:34:17.382Z,29.48
2022-08-26T05:35:17.420Z,29.42
2022-08-26T05:36:17.487Z,29.39
2022-08-26T05:37:17.692Z,29.30
2022-08-26T05:38:17.531Z,29.32
2022-08-26T05:39:17.943Z,29.23
2022-08-26T05:40:17.646Z,29.03
2022-08-26T05:41:17.639Z,29.07
2022-08-26T05:42:17.773Z,29.02
2022-08-26T05:43:17.712Z,29.00
2022-08-26T05:44:17.748Z,28.94
2022-08-26T05:45:17.788Z,28.92
2022-08-26T05:46:18.103Z,28.87
2022-08-26T05:47:17.860Z,28.91
2022-08-26T05:48:17.893Z,28.83
2022-08-26T05:49:17.926Z,28.77
2022-08-26T05:50:17.986Z,28.74
2022-08-26T05:51:18.093Z,28.69
2022-08-26T05:52:18.035Z,28.76
2022-08-26T05:53:18.381Z,28.82
2022-08-26T05:54:21.924Z,28.77
2022-08-26T05:55:18.248Z,28.76
2022-08-26T05:56:18.240Z,28.77
2022-08-26T05:57:18.561Z,28.72
2022-08-26T05:58:18.261Z,28.58
2022-08-26T05:59:24.365Z,28.55
2022-08-26T06:00:18.325Z,28.52
2022-08-26T06:01:18.403Z,28.54
2022-08-26T06:02:18.452Z,28.54
2022-08-26T06:03:18.481Z,28.60
2022-08-26T06:04:18.476Z,28.55
2022-08-26T06:05:18.506Z,28.65
2022-08-26T06:06:20.103Z,28.70
2022-08-26T06:07:18.695Z,28.72
2022-08-26T06:08:19.420Z,28.65
2022-08-26T06:09:18.675Z,28.62
2022-08-26T06:10:31.953Z,28.54
2022-08-26T06:12:18.776Z,28.48
2022-08-26T06:13:19.101Z,28.57
2022-08-26T06:14:18.836Z,28.50
2022-08-26T06:15:19.088Z,28.54
2022-08-26T06:16:18.951Z,28.52
2022-08-26T06:17:18.938Z,28.60
2022-08-26T06:18:19.157Z,28.52
2022-08-26T06:19:19.317Z,28.42
2022-08-26T06:20:19.046Z,28.45
2022-08-26T06:21:19.095Z,28.30
2022-08-26T06:22:22.302Z,28.32
2022-08-26T06:23:19.156Z,28.28
2022-08-26T06:24:19.193Z,28.30
2022-08-26T06:25:19.507Z,28.25
2022-08-26T06:26:19.261Z,28.24
2022-08-26T06:27:19.297Z,28.23
2022-08-26T06:28:19.358Z,28.15
2022-08-26T06:29:24.264Z,27.99
2022-08-26T06:30:19.404Z,27.98
2022-08-26T06:31:19.849Z,27.96
2022-08-26T06:32:19.479Z,27.96
2022-08-26T06:33:19.510Z,27.87
2022-08-26T06:34:19.555Z,27.91
2022-08-26T06:35:19.593Z,27.78
2022-08-26T06:36:19.682Z,27.86
2022-08-26T06:37:19.656Z,27.87
2022-08-26T06:38:19.998Z,27.88
2022-08-26T06:39:19.729Z,27.90
2022-08-26T06:40:19.877Z,27.88
2022-08-26T06:41:19.806Z,27.90
2022-08-26T06:42:19.835Z,27.96
2022-08-26T06:43:19.886Z,27.99
2022-08-26T06:44:19.915Z,28.01
2022-08-26T06:45:20.238Z,27.96
2022-08-26T06:46:20.018Z,28.05
2022-08-26T06:47:20.121Z,28.06
2022-08-26T06:48:20.074Z,27.98
2022-08-26T06:49:25.778Z,27.95
2022-08-26T06:50:20.124Z,27.88
2022-08-26T06:51:20.223Z,27.84
2022-08-26T06:52:24.477Z,27.84
2022-08-26T06:53:20.224Z,27.83
2022-08-26T06:54:20.265Z,27.80
2022-08-26T06:55:20.295Z,27.83
2022-08-26T06:56:20.335Z,27.86
2022-08-26T06:57:20.377Z,27.88
2022-08-26T06:58:20.408Z,27.87
2022-08-26T06:59:20.769Z,27.84
2022-08-26T07:00:20.535Z,27.88
2022-08-26T07:01:20.574Z,27.88
2022-08-26T07:02:20.834Z,27.91
2022-08-26T07:03:20.588Z,27.88
2022-08-26T07:04:22.337Z,27.88
2022-08-26T07:05:20.656Z,27.93
2022-08-26T07:06:20.991Z,27.87
2022-08-26T07:07:21.936Z,27.87
2022-08-26T07:08:20.762Z,27.83
2022-08-26T07:09:20.845Z,27.80
2022-08-26T07:10:20.838Z,27.74
2022-08-26T07:11:20.863Z,27.66
2022-08-26T07:12:20.913Z,27.62
2022-08-26T07:13:30.673Z,27.68
2022-08-26T07:14:21.383Z,27.68
2022-08-26T07:15:23.879Z,27.55
2022-08-26T07:16:21.073Z,27.66
2022-08-26T07:17:21.076Z,27.58
2022-08-26T07:18:21.764Z,27.63
2022-08-26T07:19:29.031Z,27.69
2022-08-26T07:20:21.441Z,27.71
2022-08-26T07:21:21.234Z,27.72
2022-08-26T07:22:21.369Z,27.68
2022-08-26T07:23:21.374Z,27.65
2022-08-26T07:24:21.448Z,27.66
2022-08-26T07:25:21.370Z,27.58
2022-08-26T07:26:21.447Z,27.52
2022-08-26T07:27:21.439Z,27.50
2022-08-26T07:28:21.471Z,27.46
2022-08-26T07:29:21.514Z,27.45
2022-08-26T07:30:21.736Z,27.46
2022-08-26T07:31:21.608Z,27.39
2022-08-26T07:32:22.963Z,27.40
2022-08-26T07:33:21.668Z,27.40
2022-08-26T07:34:21.690Z,27.43
2022-08-26T07:35:21.717Z,27.45
2022-08-26T07:36:21.759Z,27.45
2022-08-26T07:37:21.791Z,27.38
2022-08-26T07:38:21.825Z,27.43
2022-08-26T07:39:22.162Z,27.49
2022-08-26T07:40:22.015Z,27.40
2022-08-26T07:41:22.434Z,27.49
2022-08-26T07:42:21.964Z,27.43
2022-08-26T07:43:22.006Z,27.40
2022-08-26T07:44:22.037Z,27.33
2022-08-26T07:45:22.476Z,27.39
2022-08-26T07:46:26.976Z,27.42
2022-08-26T07:47:25.115Z,27.27
2022-08-26T07:48:22.179Z,27.34
2022-08-26T07:49:22.395Z,27.30
2022-08-26T07:50:22.249Z,27.20
2022-08-26T07:51:22.285Z,27.25
2022-08-26T07:52:26.343Z,27.24
2022-08-26T07:53:24.977Z,27.24
2022-08-26T07:54:24.633Z,27.18
2022-08-26T07:55:22.429Z,27.25
2022-08-26T07:56:22.566Z,27.18
2022-08-26T07:57:24.256Z,27.15
2022-08-26T07:58:22.819Z,27.18
2022-08-26T07:59:22.856Z,27.20
2022-08-26T08:00:22.655Z,27.20
2022-08-26T08:01:22.726Z,27.31
2022-08-26T08:02:22.719Z,27.28
2022-08-26T08:03:22.711Z,27.33
2022-08-26T08:04:26.383Z,27.28
2022-08-26T08:05:23.153Z,27.23
2022-08-26T08:06:22.957Z,27.23
2022-08-26T08:07:38.562Z,27.24
2022-08-26T08:08:27.667Z,27.11
2022-08-26T08:09:22.974Z,27.05
2022-08-26T08:10:22.956Z,27.06
2022-08-26T08:11:22.997Z,27.01
2022-08-26T08:12:23.030Z,26.94
2022-08-26T08:13:23.062Z,27.01
2022-08-26T08:14:23.096Z,27.05
2022-08-26T08:15:23.136Z,27.03
2022-08-26T08:16:23.209Z,27.06
2022-08-26T08:17:23.512Z,27.23
2022-08-26T08:18:23.234Z,27.21
2022-08-26T08:19:23.882Z,27.30
2022-08-26T08:20:23.313Z,27.38
2022-08-26T08:21:24.101Z,27.48
2022-08-26T08:22:23.379Z,27.50
2022-08-26T08:23:23.717Z,27.49
2022-08-26T08:24:23.451Z,27.61
2022-08-26T08:25:23.488Z,27.66
2022-08-26T08:26:23.519Z,27.69
2022-08-26T08:28:23.596Z,27.80
2022-08-26T08:29:23.662Z,27.80
2022-08-26T08:30:24.010Z,27.87
2022-08-26T08:31:52.564Z,27.90
2022-08-26T08:32:23.735Z,27.96
2022-08-26T08:33:23.767Z,27.99
2022-08-26T08:34:23.804Z,28.03
2022-08-26T08:35:23.844Z,28.03
2022-08-26T08:36:24.126Z,28.09
2022-08-26T08:37:23.913Z,28.17
2022-08-26T08:38:23.951Z,28.18
2022-08-26T08:39:23.978Z,28.23
2022-08-26T08:40:24.070Z,28.20
2022-08-26T08:41:24.055Z,28.32
2022-08-26T08:42:24.439Z,28.38
2022-08-26T08:43:24.119Z,28.33
2022-08-26T08:44:31.489Z,28.30
2022-08-26T08:45:24.195Z,28.28
2022-08-26T08:46:24.249Z,28.40
2022-08-26T08:47:24.265Z,28.43
2022-08-26T08:48:27.794Z,28.43
2022-08-26T08:49:24.590Z,28.45
2022-08-26T08:50:24.372Z,28.43
2022-08-26T08:51:24.403Z,28.52
2022-08-26T08:52:24.447Z,28.52
2022-08-26T08:53:24.477Z,28.48
2022-08-26T08:54:24.527Z,28.52
2022-08-26T08:55:24.555Z,28.54
2022-08-26T08:56:24.885Z,28.57
2022-08-26T08:57:24.620Z,28.65
2022-08-26T08:58:24.659Z,28.60
2022-08-26T08:59:24.701Z,28.73
2022-08-26T09:00:30.349Z,28.77
2022-08-26T09:01:24.795Z,28.83
2022-08-26T09:02:24.820Z,28.82
2022-08-26T09:03:25.150Z,28.77
2022-08-26T09:04:24.877Z,28.80
2022-08-26T09:05:24.905Z,28.79
2022-08-26T09:06:24.947Z,28.77
2022-08-26T09:07:24.983Z,28.82
2022-08-26T09:08:25.014Z,28.85
2022-08-26T09:09:25.050Z,28.89
2022-08-26T09:10:25.389Z,28.91
2022-08-26T09:11:25.126Z,28.92
2022-08-26T09:12:29.324Z,28.83
2022-08-26T09:13:27.290Z,28.92
2022-08-26T09:14:25.234Z,28.94
2022-08-26T09:15:26.399Z,28.91
2022-08-26T09:16:25.405Z,28.91
2022-08-26T09:17:25.637Z,28.89
2022-08-26T09:18:25.382Z,28.89
2022-08-26T09:19:25.416Z,28.95
2022-08-26T09:20:25.454Z,28.91
2022-08-26T09:21:25.516Z,28.95
2022-08-26T09:22:25.521Z,29.03
2022-08-26T09:23:25.559Z,29.03
2022-08-26T09:24:28.530Z,29.10
2022-08-26T09:25:25.628Z,29.08
2022-08-26T09:26:28.715Z,29.10
2022-08-26T09:27:25.705Z,29.11
2022-08-26T09:28:25.737Z,29.11
2022-08-26T09:29:25.776Z,29.05
2022-08-26T09:30:25.945Z,29.03
2022-08-26T09:31:26.945Z,29.08
2022-08-26T09:32:25.920Z,29.17
2022-08-26T09:33:25.919Z,29.11
2022-08-26T09:34:25.953Z,29.14
2022-08-26T09:35:26.036Z,29.12
2022-08-26T09:36:26.030Z,29.14
2022-08-26T09:37:26.086Z,29.15
2022-08-26T09:38:26.938Z,29.21
2022-08-26T09:39:26.218Z,29.21
2022-08-26T09:40:27.035Z,29.17
2022-08-26T09:42:26.250Z,29.26
2022-08-26T09:43:26.284Z,29.23
2022-08-26T09:44:26.319Z,29.23
2022-08-26T09:45:26.659Z,29.27
2022-08-26T09:46:26.452Z,29.32
2022-08-26T09:47:26.425Z,29.29
2022-08-26T09:48:26.458Z,29.32
2022-08-26T09:49:26.495Z,29.36
2022-08-26T09:50:28.871Z,29.27
2022-08-26T09:51:26.575Z,29.37
2022-08-26T09:52:26.914Z,29.41
2022-08-26T09:53:28.645Z,29.37
2022-08-26T09:54:30.465Z,29.39
2022-08-26T09:55:26.718Z,29.47
2022-08-26T09:56:27.525Z,29.48
2022-08-26T09:57:26.794Z,29.45
2022-08-26T09:58:26.822Z,29.52
2022-08-26T09:59:27.313Z,29.45
2022-08-26T10:00:26.894Z,29.45
2022-08-26T10:01:26.988Z,29.55
2022-08-26T10:02:26.977Z,29.44
2022-08-26T10:03:27.008Z,29.45
2022-08-26T10:04:27.131Z,29.54
2022-08-26T10:05:27.332Z,29.48
2022-08-26T10:06:27.114Z,29.55
2022-08-26T10:07:27.157Z,29.52
2022-08-26T10:08:27.209Z,29.49
2022-08-26T10:09:28.132Z,29.47
2022-08-26T10:11:27.582Z,29.48
2022-08-26T10:12:27.341Z,29.62
2022-08-26T10:14:27.459Z,29.52
2022-08-26T10:15:27.447Z,29.60
2022-08-26T10:16:28.584Z,29.57
2022-08-26T10:17:27.820Z,29.67
2022-08-26T10:18:30.721Z,29.66
2022-08-26T10:19:29.293Z,29.66
2022-08-26T10:20:27.623Z,29.62
2022-08-26T10:21:27.664Z,29.63
2022-08-26T10:22:27.697Z,29.74
2022-08-26T10:23:27.791Z,29.74
2022-08-26T10:24:28.022Z,29.76
2022-08-26T10:25:27.813Z,29.78
2022-08-26T10:26:27.852Z,29.78
2022-08-26T10:27:27.883Z,29.81
2022-08-26T10:28:27.916Z,29.78
2022-08-26T10:29:27.958Z,29.81
2022-08-26T10:30:28.019Z,29.79
2022-08-26T10:31:28.558Z,29.81
2022-08-26T10:32:28.193Z,29.84
2022-08-26T10:33:28.103Z,29.82
2022-08-26T10:34:28.137Z,29.84
2022-08-26T10:35:28.180Z,29.86
2022-08-26T10:36:28.211Z,29.86
2022-08-26T10:37:28.252Z,29.82
2022-08-26T10:38:28.733Z,29.89
2022-08-26T10:39:28.339Z,29.99
2022-08-26T10:40:28.438Z,29.88
2022-08-26T10:41:28.409Z,29.86
2022-08-26T10:42:28.876Z,29.97
2022-08-26T10:43:28.467Z,30.00
2022-08-26T10:44:28.801Z,30.01
2022-08-26T10:45:28.926Z,29.97
2022-08-26T10:46:28.622Z,30.13
2022-08-26T10:47:28.624Z,30.08
2022-08-26T10:48:35.438Z,30.10
2022-08-26T10:49:28.698Z,30.10
2022-08-26T10:50:28.724Z,30.11
2022-08-26T10:51:28.767Z,30.11
2022-08-26T10:52:29.394Z,30.13
2022-08-26T10:53:28.839Z,30.19
2022-08-26T10:54:28.879Z,30.28
2022-08-26T10:55:28.910Z,30.26
2022-08-26T10:56:28.950Z,30.19
2022-08-26T10:57:28.989Z,30.37
2022-08-26T10:58:29.022Z,30.28
2022-08-26T10:59:29.447Z,30.26
2022-08-26T11:00:29.089Z,30.37
2022-08-26T11:01:29.168Z,30.44
2022-08-26T11:02:29.171Z,30.40
2022-08-26T11:03:29.213Z,30.44
2022-08-26T11:04:29.284Z,30.49
2022-08-26T11:05:29.283Z,30.49
2022-08-26T11:06:29.317Z,30.57
2022-08-26T11:07:29.359Z,30.59
2022-08-26T11:08:29.496Z,30.57
2022-08-26T11:09:29.431Z,30.61
2022-08-26T11:10:29.467Z,30.67
2022-08-26T11:11:29.536Z,30.64
2022-08-26T11:12:29.794Z,30.78
2022-08-26T11:13:29.582Z,30.64
2022-08-26T11:14:31.445Z,30.81
2022-08-26T11:15:29.760Z,30.72
2022-08-26T11:16:29.735Z,30.72
2022-08-26T11:17:29.729Z,30.75
2022-08-26T11:18:30.018Z,30.73
2022-08-26T11:19:45.351Z,30.79
2022-08-26T11:20:29.837Z,30.78
2022-08-26T11:21:29.886Z,30.75
2022-08-26T11:22:29.919Z,30.82
2022-08-26T11:23:29.957Z,30.76
2022-08-26T11:24:30.277Z,30.81
2022-08-26T11:25:30.983Z,30.78
2022-08-26T11:26:37.806Z,30.76
2022-08-26T11:27:30.108Z,30.82
2022-08-26T11:28:30.141Z,30.78
2022-08-26T11:29:30.181Z,30.86
2022-08-26T11:30:30.516Z,30.72
2022-08-26T11:31:30.607Z,30.75
2022-08-26T11:32:30.290Z,30.79
2022-08-26T11:33:30.353Z,30.81
2022-08-26T11:34:30.394Z,30.73
2022-08-26T11:35:30.413Z,30.72
2022-08-26T11:36:30.446Z,30.81
2022-08-26T11:37:30.897Z,30.81
2022-08-26T11:38:30.533Z,30.73
2022-08-26T11:39:30.568Z,30.78
2022-08-26T11:40:30.675Z,30.86
2022-08-26T11:41:30.629Z,30.85
2022-08-26T11:42:30.675Z,30.88
2022-08-26T11:43:30.707Z,30.79
2022-08-26T11:44:30.992Z,30.75
2022-08-26T11:45:30.882Z,30.78
2022-08-26T11:46:30.819Z,30.76
2022-08-26T11:47:30.857Z,30.73
2022-08-26T11:48:30.920Z,30.75
2022-08-26T11:49:30.931Z,30.68
2022-08-26T11:50:30.982Z,30.67
2022-08-26T11:51:31.335Z,30.72
2022-08-26T11:52:31.043Z,30.76
2022-08-26T11:53:31.079Z,30.73
2022-08-26T11:54:35.615Z,30.72
2022-08-26T11:55:31.187Z,30.78
2022-08-26T11:56:31.673Z,30.67
2022-08-26T11:57:31.230Z,30.68
2022-08-26T11:58:31.526Z,30.56
2022-08-26T11:59:31.309Z,30.37
2022-08-26T12:00:33.390Z,30.32
2022-08-26T12:01:31.462Z,30.23
2022-08-26T12:02:31.420Z,30.11
2022-08-26T12:03:31.545Z,29.99
2022-08-26T12:04:31.637Z,29.81
2022-08-26T12:05:31.538Z,29.84
2022-08-26T12:06:31.582Z,29.76
2022-08-26T12:07:31.613Z,29.79
2022-08-26T12:08:31.644Z,29.67
2022-08-26T12:09:31.688Z,29.64
2022-08-26T12:10:31.728Z,29.60
2022-08-26T12:11:32.064Z,29.49
2022-08-26T12:12:34.941Z,29.48
2022-08-26T12:13:31.830Z,29.47
2022-08-26T12:14:31.868Z,29.37
2022-08-26T12:15:31.917Z,29.42
2022-08-26T12:17:32.233Z,29.29
2022-08-26T12:18:32.014Z,29.23
2022-08-26T12:20:59.824Z,29.20
2022-08-26T12:21:59.895Z,29.17
2022-08-26T12:22:59.897Z,29.14
2022-08-26T12:23:59.932Z,29.03
2022-08-26T12:24:59.987Z,29.05
2022-08-26T12:26:00.026Z,29.08
2022-08-26T12:27:00.136Z,29.07
2022-08-26T12:28:00.083Z,29.00
2022-08-26T12:29:00.133Z,29.02
2022-08-26T12:30:00.156Z,28.97
2022-08-26T12:31:00.189Z,28.94
2022-08-26T12:32:00.319Z,28.87
2022-08-26T12:33:00.619Z,28.92
2022-08-26T12:35:01.601Z,28.85
2022-08-26T12:36:01.255Z,28.82
2022-08-26T12:37:01.571Z,28.82
2022-08-26T12:38:01.132Z,28.74
2022-08-26T12:39:00.768Z,28.79
2022-08-26T12:40:00.869Z,28.72
2022-08-26T12:41:00.576Z,28.73
2022-08-26T12:42:00.602Z,28.69
2022-08-26T12:43:00.627Z,28.69
2022-08-26T12:45:00.726Z,28.55
2022-08-26T12:47:00.778Z,28.58
2022-08-26T12:49:01.191Z,28.57
2022-08-26T12:50:00.900Z,28.55
2022-08-26T12:51:00.929Z,28.60
2022-08-26T12:52:01.068Z,28.55
2022-08-26T12:53:01.057Z,28.57
2022-08-26T12:54:01.044Z,28.51
2022-08-26T12:55:01.367Z,28.46
2022-08-26T12:56:01.417Z,28.39
2022-08-26T12:58:01.277Z,28.35
2022-08-26T12:59:01.225Z,28.33
2022-08-26T13:00:01.279Z,28.36
2022-08-26T13:01:01.396Z,28.33
2022-08-26T13:02:01.426Z,28.30
2022-08-26T13:03:01.704Z,28.40
2022-08-26T13:04:01.423Z,28.24
2022-08-26T13:05:01.433Z,28.24
2022-08-26T13:06:01.847Z,28.25
2022-08-26T13:07:01.571Z,28.21
2022-08-26T13:08:01.538Z,28.23
2022-08-26T13:10:01.883Z,28.13
2022-08-26T13:11:01.681Z,28.14
2022-08-26T13:13:01.812Z,28.08
2022-08-26T13:14:01.860Z,28.05
2022-08-26T13:15:01.817Z,28.05
2022-08-26T13:17:02.184Z,28.03
2022-08-26T13:18:01.937Z,28.09
2022-08-26T13:19:01.947Z,28.05
2022-08-26T13:20:04.088Z,27.98
2022-08-26T13:21:02.113Z,27.93
2022-08-26T13:22:02.094Z,27.93
2022-08-26T13:23:02.098Z,27.88
2022-08-26T13:24:02.425Z,27.90
2022-08-26T13:25:02.176Z,27.88
2022-08-26T13:26:02.213Z,27.90